sensor_id;sensor_type;location;lat;lon;timestamp;pressure;altitude;pressure_sealevel;temperature;humidity
58092;BME280;43896;48.178;11.578;2022-12-24T00:03:28;95301.03;;;11.67;76.50
58092;BME280;43896;48.178;11.578;2022-12-24T00:09:46;95267.47;;;11.22;75.79
58092;BME280;43896;48.178;11.578;2022-12-24T00:12:58;95257.84;;;11.15;74.65
58092;BME280;43896;48.178;11.578;2022-12-24T00:18:40;95282.97;;;11.17;75.31
58092;BME280;43896;48.178;11.578;2022-12-24T00:21:16;95312.16;;;11.31;75.62
58092;BME280;43896;48.178;11.578;2022-12-24T00:24:05;95353.06;;;11.64;74.96
58092;BME280;43896;48.178;11.578;2022-12-24T00:26:35;95283.09;;;11.24;75.29
58092;BME280;43896;48.178;11.578;2022-12-24T00:29:11;95290.88;;;11.17;75.34
58092;BME280;43896;48.178;11.578;2022-12-24T00:32:11;95298.38;;;11.29;75.19
58092;BME280;43896;48.178;11.578;2022-12-24T00:35:08;95289.41;;;11.15;76.37
58092;BME280;43896;48.178;11.578;2022-12-24T00:37:38;95252.03;;;10.96;76.44
58092;BME280;43896;48.178;11.578;2022-12-24T00:40:16;95253.88;;;10.64;77.29
58092;BME280;43896;48.178;11.578;2022-12-24T00:43:00;95251.06;;;10.35;78.40
58092;BME280;43896;48.178;11.578;2022-12-24T00:45:51;95363.88;;;11.47;77.15
58092;BME280;43896;48.178;11.578;2022-12-24T00:48:24;95345.88;;;11.35;76.56
58092;BME280;43896;48.178;11.578;2022-12-24T00:55:04;95388.00;;;11.58;76.33
58092;BME280;43896;48.178;11.578;2022-12-24T00:57:40;95360.31;;;11.39;76.77
58092;BME280;43896;48.178;11.578;2022-12-24T01:00:47;95355.22;;;11.38;75.63
58092;BME280;43896;48.178;11.578;2022-12-24T01:03:15;95357.09;;;11.29;75.87
58092;BME280;43896;48.178;11.578;2022-12-24T01:05:51;95287.72;;;10.99;75.60
58092;BME280;43896;48.178;11.578;2022-12-24T01:08:36;95286.38;;;11.03;74.79
58092;BME280;43896;48.178;11.578;2022-12-24T01:11:09;95306.91;;;11.07;74.72
58092;BME280;43896;48.178;11.578;2022-12-24T01:13:50;95409.31;;;11.72;74.50
58092;BME280;43896;48.178;11.578;2022-12-24T01:16:21;95283.47;;;10.89;73.43
58092;BME280;43896;48.178;11.578;2022-12-24T01:21:39;95371.09;;;11.53;73.58
58092;BME280;43896;48.178;11.578;2022-12-24T01:24:53;95341.84;;;11.24;73.10
58092;BME280;43896;48.178;11.578;2022-12-24T01:27:19;95309.91;;;10.96;73.40
58092;BME280;43896;48.178;11.578;2022-12-24T01:29:51;95292.22;;;10.90;73.32
58092;BME280;43896;48.178;11.578;2022-12-24T01:32:20;95315.53;;;10.93;73.44
58092;BME280;43896;48.178;11.578;2022-12-24T01:34:50;95312.97;;;10.85;73.47
58092;BME280;43896;48.178;11.578;2022-12-24T01:37:18;95324.28;;;10.85;73.40
58092;BME280;43896;48.178;11.578;2022-12-24T01:39:47;95444.16;;;11.59;73.31
58092;BME280;43896;48.178;11.578;2022-12-24T01:42:37;95388.00;;;11.35;73.06
58092;BME280;43896;48.178;11.578;2022-12-24T01:45:42;95441.97;;;11.62;72.73
58092;BME280;43896;48.178;11.578;2022-12-24T01:48:19;95416.22;;;11.50;72.62
58092;BME280;43896;48.178;11.578;2022-12-24T01:54:06;95428.78;;;11.39;71.96
58092;BME280;43896;48.178;11.578;2022-12-24T01:56:36;95378.47;;;11.03;72.25
58092;BME280;43896;48.178;11.578;2022-12-24T01:59:07;95424.84;;;11.35;71.62
58092;BME280;43896;48.178;11.578;2022-12-24T02:01:37;95400.84;;;11.30;71.21
58092;BME280;43896;48.178;11.578;2022-12-24T02:04:15;95404.53;;;11.21;71.69
58092;BME280;43896;48.178;11.578;2022-12-24T02:06:51;95469.66;;;11.58;71.97
58092;BME280;43896;48.178;11.578;2022-12-24T02:09:24;95360.00;;;10.80;72.02
58092;BME280;43896;48.178;11.578;2022-12-24T02:11:49;95352.94;;;10.80;72.34
58092;BME280;43896;48.178;11.578;2022-12-24T02:14:16;95365.50;;;10.93;71.92
58092;BME280;43896;48.178;11.578;2022-12-24T02:22:24;95439.88;;;11.26;71.75
58092;BME280;43896;48.178;11.578;2022-12-24T02:27:44;95461.13;;;11.48;71.57
58092;BME280;43896;48.178;11.578;2022-12-24T02:30:26;95363.56;;;10.95;71.30
58092;BME280;43896;48.178;11.578;2022-12-24T02:33:25;95417.00;;;11.27;71.62
58092;BME280;43896;48.178;11.578;2022-12-24T02:39:15;95457.25;;;11.36;71.33
58092;BME280;43896;48.178;11.578;2022-12-24T02:41:52;95382.47;;;10.91;70.60
58092;BME280;43896;48.178;11.578;2022-12-24T02:44:54;95404.16;;;10.93;70.36
58092;BME280;43896;48.178;11.578;2022-12-24T02:47:24;95516.75;;;11.53;70.86
58092;BME280;43896;48.178;11.578;2022-12-24T02:49:53;95462.25;;;11.22;70.79
58092;BME280;43896;48.178;11.578;2022-12-24T02:52:39;95491.00;;;11.32;70.32
58092;BME280;43896;48.178;11.578;2022-12-24T02:55:19;95399.28;;;10.81;69.86
58092;BME280;43896;48.178;11.578;2022-12-24T03:03:41;95514.78;;;11.55;69.20
58092;BME280;43896;48.178;11.578;2022-12-24T03:09:29;95472.47;;;11.17;68.72
58092;BME280;43896;48.178;11.578;2022-12-24T03:12:05;95416.19;;;10.87;68.79
58092;BME280;43896;48.178;11.578;2022-12-24T03:14:33;95519.91;;;11.49;67.74
58092;BME280;43896;48.178;11.578;2022-12-24T03:17:00;95402.94;;;10.64;68.28
58092;BME280;43896;48.178;11.578;2022-12-24T03:19:27;95468.25;;;11.08;68.22
58092;BME280;43896;48.178;11.578;2022-12-24T03:21:55;95524.03;;;11.43;67.67
58092;BME280;43896;48.178;11.578;2022-12-24T03:24:22;95459.06;;;11.04;67.53
58092;BME280;43896;48.178;11.578;2022-12-24T03:26:49;95483.66;;;11.19;67.91
58092;BME280;43896;48.178;11.578;2022-12-24T03:29:15;95473.97;;;11.20;67.33
58092;BME280;43896;48.178;11.578;2022-12-24T03:31:48;95469.50;;;11.20;67.30
58092;BME280;43896;48.178;11.578;2022-12-24T03:34:16;95401.78;;;10.66;67.95
58092;BME280;43896;48.178;11.578;2022-12-24T03:36:42;95430.84;;;10.81;67.73
58092;BME280;43896;48.178;11.578;2022-12-24T03:39:09;95479.41;;;11.10;67.43
58092;BME280;43896;48.178;11.578;2022-12-24T03:41:37;95448.56;;;10.87;67.70
58092;BME280;43896;48.178;11.578;2022-12-24T03:44:03;95473.53;;;11.00;67.77
58092;BME280;43896;48.178;11.578;2022-12-24T03:46:29;95509.13;;;11.27;67.21
58092;BME280;43896;48.178;11.578;2022-12-24T03:48:54;95428.22;;;10.81;66.88
58092;BME280;43896;48.178;11.578;2022-12-24T03:51:22;95547.22;;;11.48;67.33
58092;BME280;43896;48.178;11.578;2022-12-24T03:53:48;95429.84;;;10.82;66.96
58092;BME280;43896;48.178;11.578;2022-12-24T03:56:14;95491.50;;;11.27;66.83
58092;BME280;43896;48.178;11.578;2022-12-24T03:58:44;95424.41;;;10.92;66.79
58092;BME280;43896;48.178;11.578;2022-12-24T04:01:13;95491.19;;;11.31;66.88
58092;BME280;43896;48.178;11.578;2022-12-24T04:03:41;95496.16;;;11.17;67.03
58092;BME280;43896;48.178;11.578;2022-12-24T04:09:11;95454.16;;;10.93;66.59
58092;BME280;43896;48.178;11.578;2022-12-24T04:11:39;95437.75;;;10.74;67.17
58092;BME280;43896;48.178;11.578;2022-12-24T04:14:04;95509.53;;;11.07;67.19
58092;BME280;43896;48.178;11.578;2022-12-24T04:16:32;95524.31;;;11.17;67.06
58092;BME280;43896;48.178;11.578;2022-12-24T04:18:58;95540.41;;;11.22;66.98
58092;BME280;43896;48.178;11.578;2022-12-24T04:21:26;95481.16;;;10.86;67.23
58092;BME280;43896;48.178;11.578;2022-12-24T04:23:51;95470.81;;;10.77;67.15
58092;BME280;43896;48.178;11.578;2022-12-24T04:26:17;95528.75;;;11.16;66.62
58092;BME280;43896;48.178;11.578;2022-12-24T04:28:42;95482.78;;;10.79;66.92
58092;BME280;43896;48.178;11.578;2022-12-24T04:31:13;95601.06;;;11.45;66.72
58092;BME280;43896;48.178;11.578;2022-12-24T04:33:39;95537.31;;;11.02;66.43
58092;BME280;43896;48.178;11.578;2022-12-24T04:36:06;95487.94;;;10.64;67.04
58092;BME280;43896;48.178;11.578;2022-12-24T04:38:32;95493.34;;;10.71;67.35
58092;BME280;43896;48.178;11.578;2022-12-24T04:41:05;95527.78;;;11.09;66.53
58092;BME280;43896;48.178;11.578;2022-12-24T04:43:36;95537.47;;;11.17;66.30
58092;BME280;43896;48.178;11.578;2022-12-24T04:46:06;95598.06;;;11.48;66.27
58092;BME280;43896;48.178;11.578;2022-12-24T04:48:36;95528.94;;;11.06;66.49
58092;BME280;43896;48.178;11.578;2022-12-24T04:58:07;95623.91;;;11.53;66.53
58092;BME280;43896;48.178;11.578;2022-12-24T05:00:35;95511.72;;;10.87;65.92
58092;BME280;43896;48.178;11.578;2022-12-24T05:03:03;95582.84;;;11.19;66.41
58092;BME280;43896;48.178;11.578;2022-12-24T05:05:34;95591.22;;;11.22;66.53
58092;BME280;43896;48.178;11.578;2022-12-24T05:08:05;95581.34;;;11.33;65.69
58092;BME280;43896;48.178;11.578;2022-12-24T05:10:35;95609.31;;;11.25;65.92
58092;BME280;43896;48.178;11.578;2022-12-24T05:20:10;95522.94;;;10.81;65.50
58092;BME280;43896;48.178;11.578;2022-12-24T05:22:58;95521.44;;;10.87;65.82
58092;BME280;43896;48.178;11.578;2022-12-24T05:37:04;95629.66;;;11.56;65.65
58092;BME280;43896;48.178;11.578;2022-12-24T06:13:22;95570.59;;;10.78;63.88
58092;BME280;43896;48.178;11.578;2022-12-24T06:40:38;95706.72;;;11.17;66.02
58092;BME280;43896;48.178;11.578;2022-12-24T06:43:12;95688.31;;;11.25;65.21
58092;BME280;43896;48.178;11.578;2022-12-24T06:45:39;95640.09;;;11.08;65.21
58092;BME280;43896;48.178;11.578;2022-12-24T06:48:41;95595.91;;;10.79;65.06
58092;BME280;43896;48.178;11.578;2022-12-24T06:51:21;95710.31;;;11.57;64.62
58092;BME280;43896;48.178;11.578;2022-12-24T07:30:03;95630.25;;;10.37;63.67
58092;BME280;43896;48.178;11.578;2022-12-24T07:43:34;95670.16;;;10.48;62.66
58092;BME280;43896;48.178;11.578;2022-12-24T07:46:37;95782.09;;;11.18;62.38
58092;BME280;43896;48.178;11.578;2022-12-24T07:49:06;95797.22;;;11.16;62.12
58092;BME280;43896;48.178;11.578;2022-12-24T07:51:45;95803.00;;;11.28;62.01
58092;BME280;43896;48.178;11.578;2022-12-24T08:01:02;95678.28;;;10.21;60.80
58092;BME280;43896;48.178;11.578;2022-12-24T08:06:46;95742.84;;;10.58;60.14
58092;BME280;43896;48.178;11.578;2022-12-24T08:09:23;95729.47;;;10.43;60.70
58092;BME280;43896;48.178;11.578;2022-12-24T08:23:02;95709.63;;;10.14;59.82
58092;BME280;43896;48.178;11.578;2022-12-24T08:25:37;95705.06;;;10.24;60.02
58092;BME280;43896;48.178;11.578;2022-12-24T08:46:12;95790.19;;;10.58;59.63
58092;BME280;43896;48.178;11.578;2022-12-24T09:11:13;95918.50;;;11.23;58.51
58092;BME280;43896;48.178;11.578;2022-12-24T09:13:39;95829.81;;;10.73;58.09
58092;BME280;43896;48.178;11.578;2022-12-24T09:16:05;95831.75;;;10.62;57.82
58092;BME280;43896;48.178;11.578;2022-12-24T09:18:31;95917.50;;;11.24;58.28
58092;BME280;43896;48.178;11.578;2022-12-24T09:21:01;95807.41;;;11.03;56.32
58092;BME280;43896;48.178;11.578;2022-12-24T09:23:27;95921.22;;;12.46;54.58
58092;BME280;43896;48.178;11.578;2022-12-24T09:25:53;95926.00;;;12.51;54.36
58092;BME280;43896;48.178;11.578;2022-12-24T09:28:18;95929.63;;;12.50;54.53
58092;BME280;43896;48.178;11.578;2022-12-24T09:30:43;95833.78;;;11.52;54.49
58092;BME280;43896;48.178;11.578;2022-12-24T09:33:09;95914.13;;;11.64;55.69
58092;BME280;43896;48.178;11.578;2022-12-24T09:35:37;95917.41;;;11.50;55.98
58092;BME280;43896;48.178;11.578;2022-12-24T09:38:03;95918.38;;;11.41;56.97
58092;BME280;43896;48.178;11.578;2022-12-24T09:40:35;95787.94;;;10.71;56.47
58092;BME280;43896;48.178;11.578;2022-12-24T09:43:06;95800.25;;;10.70;57.11
58092;BME280;43896;48.178;11.578;2022-12-24T09:45:38;95909.16;;;11.37;57.01
58092;BME280;43896;48.178;11.578;2022-12-24T09:48:36;95923.78;;;11.31;56.80
58092;BME280;43896;48.178;11.578;2022-12-24T09:51:33;95845.44;;;10.66;57.11
58092;BME280;43896;48.178;11.578;2022-12-24T09:54:05;95830.53;;;10.75;57.13
58092;BME280;43896;48.178;11.578;2022-12-24T09:56:42;95866.53;;;10.82;58.14
58092;BME280;43896;48.178;11.578;2022-12-24T09:59:21;95837.56;;;10.66;56.88
58092;BME280;43896;48.178;11.578;2022-12-24T10:01:49;95832.00;;;10.77;56.71
58092;BME280;43896;48.178;11.578;2022-12-24T10:04:18;95907.47;;;11.19;56.61
58092;BME280;43896;48.178;11.578;2022-12-24T10:06:47;95901.22;;;11.29;56.90
58092;BME280;43896;48.178;11.578;2022-12-24T10:09:43;95898.31;;;11.40;56.13
58092;BME280;43896;48.178;11.578;2022-12-24T10:15:39;95885.97;;;11.49;55.02
58092;BME280;43896;48.178;11.578;2022-12-24T10:18:22;95904.09;;;11.68;53.96
58092;BME280;43896;48.178;11.578;2022-12-24T10:21:09;95904.72;;;11.62;54.82
58092;BME280;43896;48.178;11.578;2022-12-24T10:23:46;95842.16;;;11.23;54.38
58092;BME280;43896;48.178;11.578;2022-12-24T10:26:22;95859.97;;;11.54;54.43
58092;BME280;43896;48.178;11.578;2022-12-24T10:28:58;95889.09;;;11.52;54.26
58092;BME280;43896;48.178;11.578;2022-12-24T10:31:28;95863.72;;;11.35;53.70
58092;BME280;43896;48.178;11.578;2022-12-24T10:33:59;95881.66;;;11.31;53.96
58092;BME280;43896;48.178;11.578;2022-12-24T10:36:29;95917.91;;;11.62;54.29
58092;BME280;43896;48.178;11.578;2022-12-24T10:38:56;95822.88;;;11.06;53.62
58092;BME280;43896;48.178;11.578;2022-12-24T10:41:24;95929.13;;;11.64;53.75
58092;BME280;43896;48.178;11.578;2022-12-24T10:43:51;95817.56;;;10.81;53.97
58092;BME280;43896;48.178;11.578;2022-12-24T10:46:32;95912.44;;;11.39;54.49
58092;BME280;43896;48.178;11.578;2022-12-24T10:49:01;95876.22;;;11.24;54.15
58092;BME280;43896;48.178;11.578;2022-12-24T10:54:17;95809.41;;;11.09;53.53
58092;BME280;43896;48.178;11.578;2022-12-24T10:56:48;95907.06;;;11.81;53.48
58092;BME280;43896;48.178;11.578;2022-12-24T10:59:40;95924.91;;;12.12;52.56
58092;BME280;43896;48.178;11.578;2022-12-24T11:02:35;95919.94;;;12.01;52.66
58092;BME280;43896;48.178;11.578;2022-12-24T11:05:04;95828.00;;;11.24;53.03
58092;BME280;43896;48.178;11.578;2022-12-24T11:07:31;95902.19;;;12.75;53.45
58092;BME280;43896;48.178;11.578;2022-12-24T11:10:12;95905.59;;;13.86;51.37
58092;BME280;43896;48.178;11.578;2022-12-24T11:12:47;95895.41;;;16.55;43.38
58092;BME280;43896;48.178;11.578;2022-12-24T11:15:24;95827.09;;;16.36;42.51
58092;BME280;43896;48.178;11.578;2022-12-24T11:17:57;95800.59;;;17.46;40.04
58092;BME280;43896;48.178;11.578;2022-12-24T11:20:26;95910.00;;;19.43;36.33
58092;BME280;43896;48.178;11.578;2022-12-24T11:22:52;95819.09;;;18.07;37.22
58092;BME280;43896;48.178;11.578;2022-12-24T11:25:25;95883.50;;;16.79;40.79
58092;BME280;43896;48.178;11.578;2022-12-24T11:27:56;95897.72;;;16.65;40.03
58092;BME280;43896;48.178;11.578;2022-12-24T11:30:34;95916.16;;;15.95;42.14
58092;BME280;43896;48.178;11.578;2022-12-24T11:35:30;95915.09;;;15.02;44.77
58092;BME280;43896;48.178;11.578;2022-12-24T11:40:30;95878.19;;;14.55;45.20
58092;BME280;43896;48.178;11.578;2022-12-24T11:42:59;95827.47;;;13.84;46.24
58092;BME280;43896;48.178;11.578;2022-12-24T11:45:26;95830.59;;;13.64;46.88
58092;BME280;43896;48.178;11.578;2022-12-24T11:47:53;95826.09;;;13.88;46.66
58092;BME280;43896;48.178;11.578;2022-12-24T11:50:31;95819.22;;;15.28;43.52
58092;BME280;43896;48.178;11.578;2022-12-24T11:53:19;95892.44;;;15.14;45.14
58092;BME280;43896;48.178;11.578;2022-12-24T11:55:51;95873.38;;;15.77;43.35
58092;BME280;43896;48.178;11.578;2022-12-24T12:01:13;95875.69;;;13.86;47.36
58092;BME280;43896;48.178;11.578;2022-12-24T12:04:12;95894.19;;;13.40;49.51
58092;BME280;43896;48.178;11.578;2022-12-24T12:06:42;95892.00;;;13.12;50.41
58092;BME280;43896;48.178;11.578;2022-12-24T12:09:24;95846.84;;;12.51;50.93
58092;BME280;43896;48.178;11.578;2022-12-24T12:12:19;95915.84;;;12.87;51.50
58092;BME280;43896;48.178;11.578;2022-12-24T12:14:52;95904.31;;;12.80;51.86
58092;BME280;43896;48.178;11.578;2022-12-24T12:25:36;95893.38;;;12.35;52.80
58092;BME280;43896;48.178;11.578;2022-12-24T12:28:10;95891.22;;;12.31;52.72
58092;BME280;43896;48.178;11.578;2022-12-24T12:30:39;95884.50;;;12.12;53.33
58092;BME280;43896;48.178;11.578;2022-12-24T12:33:21;95911.19;;;12.33;53.72
58092;BME280;43896;48.178;11.578;2022-12-24T12:35:49;95892.78;;;12.00;54.44
58092;BME280;43896;48.178;11.578;2022-12-24T12:38:22;95898.38;;;12.14;53.74
58092;BME280;43896;48.178;11.578;2022-12-24T12:41:12;95917.44;;;12.49;53.69
58092;BME280;43896;48.178;11.578;2022-12-24T12:50:02;95879.56;;;12.17;54.10
58092;BME280;43896;48.178;11.578;2022-12-24T12:55:32;95858.66;;;12.15;53.28
58092;BME280;43896;48.178;11.578;2022-12-24T12:58:12;95917.75;;;12.46;53.15
58092;BME280;43896;48.178;11.578;2022-12-24T13:00:53;95915.97;;;12.38;54.13
58092;BME280;43896;48.178;11.578;2022-12-24T13:13:30;95897.06;;;11.93;54.54
58092;BME280;43896;48.178;11.578;2022-12-24T13:18:59;95934.69;;;12.68;53.66
58092;BME280;43896;48.178;11.578;2022-12-24T13:21:31;95902.72;;;12.63;53.06
58092;BME280;43896;48.178;11.578;2022-12-24T13:24:38;95867.34;;;12.32;52.56
58092;BME280;43896;48.178;11.578;2022-12-24T13:34:52;95959.47;;;12.59;53.37
58092;BME280;43896;48.178;11.578;2022-12-24T13:37:46;95965.72;;;12.49;53.76
58092;BME280;43896;48.178;11.578;2022-12-24T13:40:24;95954.19;;;12.42;53.64
58092;BME280;43896;48.178;11.578;2022-12-24T13:42:51;95972.00;;;12.32;54.64
58092;BME280;43896;48.178;11.578;2022-12-24T13:46:00;95954.06;;;12.19;54.15
58092;BME280;43896;48.178;11.578;2022-12-24T13:48:39;95928.00;;;11.83;54.56
58092;BME280;43896;48.178;11.578;2022-12-24T13:54:27;95908.22;;;11.87;54.50
58092;BME280;43896;48.178;11.578;2022-12-24T13:57:14;95941.84;;;12.10;54.63
58092;BME280;43896;48.178;11.578;2022-12-24T14:28:54;95992.16;;;11.57;57.20
58092;BME280;43896;48.178;11.578;2022-12-24T15:11:07;95914.31;;;10.17;60.22
58092;BME280;43896;48.178;11.578;2022-12-24T21:54:37;96047.03;;;9.39;65.56
58092;BME280;43896;48.178;11.578;2022-12-24T21:57:07;96137.28;;;9.94;65.48
58092;BME280;43896;48.178;11.578;2022-12-24T22:11:03;96045.59;;;9.17;65.26
58092;BME280;43896;48.178;11.578;2022-12-24T22:14:57;96042.94;;;9.27;65.28
58092;BME280;43896;48.178;11.578;2022-12-24T22:22:38;96102.28;;;9.75;65.10
58092;BME280;43896;48.178;11.578;2022-12-24T22:25:06;96094.81;;;9.71;65.04
58092;BME280;43896;48.178;11.578;2022-12-24T22:27:47;96087.22;;;9.68;65.48
